Time;durP1;ratioP1;P1;durP2;ratioP2;P2;SDS_P1;SDS_P2;PMS_P1;PMS_P2;Temp;Humidity;BMP_temperature;BMP_pressure;BME280_temperature;BME280_humidity;BME280_pressure;Samples;Min_cycle;Max_cycle;Signal;HPM_P1;HPM_P2
2022/09/17 00:01:34;;;;;;;0.08;0.08;;;;;;;13.94;65.52;101476.91;5054218;28;20040;-80
2022/09/17 00:04:03;;;;;;;0.10;0.10;;;;;;;13.90;65.79;101490.28;5055519;28;20111;-80
2022/09/17 00:06:32;;;;;;;0.00;0.00;;;;;;;13.86;65.66;101517.94;5053057;28;20035;-80
2022/09/17 00:08:58;;;;;;;0.10;0.10;;;;;;;13.82;66.32;101526.00;5054808;28;20025;-79
2022/09/17 00:11:28;;;;;;;0.10;0.10;;;;;;;13.88;66.67;101528.53;5049061;28;20056;-79
2022/09/17 00:13:56;;;;;;;0.10;0.10;;;;;;;13.78;66.87;101519.00;5050275;28;20067;-79
2022/09/17 00:19:02;;;;;;;0.10;0.10;;;;;;;13.78;65.99;101508.38;5063555;28;20385;-79
2022/09/17 00:21:29;;;;;;;0.10;0.10;;;;;;;13.72;66.07;101522.69;5029614;28;20051;-79
2022/09/17 00:23:57;;;;;;;0.10;0.10;;;;;;;13.77;66.02;101512.81;5029712;28;20030;-79
2022/09/17 00:26:25;;;;;;;0.10;0.10;;;;;;;13.78;65.86;101514.56;5030966;28;20034;-79
2022/09/17 00:28:52;;;;;;;0.50;0.47;;;;;;;13.80;66.09;101522.53;5029056;28;20543;-79
2022/09/17 00:31:20;;;;;;;0.10;0.10;;;;;;;13.80;65.65;101518.06;5030798;28;20081;-80
2022/09/17 00:33:46;;;;;;;0.10;0.10;;;;;;;13.82;66.16;101520.69;5030111;28;20300;-79
2022/09/17 00:36:12;;;;;;;0.10;0.10;;;;;;;13.82;66.30;101516.25;5031430;28;20381;-79
2022/09/17 00:38:38;;;;;;;0.10;0.10;;;;;;;13.85;66.21;101525.97;5031510;28;20033;-79
2022/09/17 00:41:06;;;;;;;0.10;0.10;;;;;;;13.85;66.28;101523.31;5030883;28;20388;-79
2022/09/17 00:43:51;;;;;;;0.10;0.10;;;;;;;13.94;65.69;101520.41;5027920;28;20599;-80
2022/09/17 00:46:40;;;;;;;0.00;0.00;;;;;;;13.88;65.96;101509.91;5029010;28;20029;-79
2022/09/17 00:49:19;;;;;;;0.10;0.10;;;;;;;13.82;65.41;101532.25;5035771;28;20555;-79
2022/09/17 00:51:56;;;;;;;0.00;0.00;;;;;;;13.79;65.12;101528.75;5028588;28;20112;-80
2022/09/17 00:54:23;;;;;;;0.10;0.10;;;;;;;13.79;65.07;101548.28;5030563;28;20026;-79
2022/09/17 00:56:51;;;;;;;0.10;0.10;;;;;;;13.71;65.26;101552.91;5030217;28;20022;-79
2022/09/17 00:59:18;;;;;;;0.10;0.10;;;;;;;13.64;66.06;101554.81;5027614;28;20030;-79
2022/09/17 01:01:45;;;;;;;0.20;0.20;;;;;;;13.64;65.18;101551.28;5034186;28;20030;-80
2022/09/17 01:04:20;;;;;;;0.10;0.10;;;;;;;13.54;65.37;101534.63;5026771;28;20117;-80
2022/09/17 01:07:19;;;;;;;0.10;0.10;;;;;;;13.58;64.96;101507.91;5030793;28;20030;-79
2022/09/17 01:13:00;;;;;;;0.10;0.10;;;;;;;13.50;64.95;101514.31;5066391;28;20409;-80
2022/09/17 01:27:03;;;;;;;0.03;0.03;;;;;;;13.37;65.82;101518.97;5078545;27;1872477;-80
2022/09/17 01:32:51;;;;;;;0.10;0.10;;;;;;;13.39;66.66;101519.84;5107185;27;20435;-79
2022/09/17 01:35:27;;;;;;;0.10;0.10;;;;;;;13.39;65.85;101522.50;5100495;28;20400;-79
2022/09/17 01:41:06;;;;;;;0.10;0.10;;;;;;;13.37;66.11;101527.88;5054724;28;20419;-80
2022/09/17 01:43:56;;;;;;;0.00;0.00;;;;;;;13.43;66.23;101529.50;5034417;28;21319;-80
2022/09/17 01:46:29;;;;;;;0.20;0.20;;;;;;;13.34;66.28;101532.34;5034085;28;20542;-80
2022/09/17 01:49:01;;;;;;;0.10;0.10;;;;;;;13.33;66.65;101538.56;5030928;28;20150;-80
2022/09/17 01:51:35;;;;;;;0.57;0.57;;;;;;;13.30;66.38;101543.97;5030296;28;20030;-80
2022/09/17 01:54:27;;;;;;;0.10;0.10;;;;;;;13.32;66.92;101536.81;5030544;28;20363;-80
2022/09/17 01:57:01;;;;;;;0.10;0.10;;;;;;;13.36;66.37;101549.19;5029801;28;20052;-80
2022/09/17 01:59:34;;;;;;;0.10;0.10;;;;;;;13.40;67.10;101556.22;5032180;28;20118;-80
2022/09/17 02:02:11;;;;;;;0.10;0.10;;;;;;;13.46;66.56;101553.44;5031157;28;20033;-80
2022/09/17 02:04:47;;;;;;;0.10;0.10;;;;;;;13.53;66.89;101555.06;5031276;28;20045;-80
2022/09/17 02:07:21;;;;;;;0.10;0.10;;;;;;;13.61;67.12;101564.66;5029916;28;20021;-80
2022/09/17 02:09:58;;;;;;;0.20;0.20;;;;;;;13.64;67.05;101559.28;5030767;28;20560;-80
2022/09/17 02:12:31;;;;;;;0.10;0.10;;;;;;;13.63;66.93;101563.69;5042499;28;20029;-80
2022/09/17 02:15:01;;;;;;;0.10;0.10;;;;;;;13.59;67.56;101546.03;5033876;28;20125;-80
2022/09/17 02:17:35;;;;;;;0.00;0.00;;;;;;;13.64;67.27;101562.78;5037157;28;20065;-80
2022/09/17 02:20:02;;;;;;;0.10;0.10;;;;;;;13.56;67.40;101567.44;5034950;28;20017;-80
2022/09/17 02:25:30;;;;;;;0.10;0.10;;;;;;;13.66;66.84;101550.34;5103095;27;1170012;-79
2022/09/17 02:30:33;;;;;;;0.10;0.10;;;;;;;13.50;67.15;101552.44;5060864;28;20244;-79
2022/09/17 02:33:01;;;;;;;0.10;0.10;;;;;;;13.46;67.29;101550.75;5035853;28;20033;-80
2022/09/17 02:35:29;;;;;;;0.10;0.10;;;;;;;13.42;67.50;101554.38;5043397;28;20056;-79
2022/09/17 02:37:55;;;;;;;0.10;0.10;;;;;;;13.38;66.99;101552.69;5033459;28;20504;-79
2022/09/17 02:40:26;;;;;;;0.08;0.08;;;;;;;13.33;67.27;101554.53;5033420;28;20025;-79
2022/09/17 02:43:18;;;;;;;0.10;0.10;;;;;;;13.36;66.99;101554.50;5035694;28;20540;-80
2022/09/17 02:51:42;;;;;;;0.10;0.10;;;;;;;13.28;67.92;101567.94;5090148;27;20401;-78
2022/09/17 02:57:19;;;;;;;0.95;0.90;;;;;;;13.16;66.88;101561.09;5066830;28;20909;-80
2022/09/17 03:00:13;;;;;;;0.10;0.10;;;;;;;13.22;67.02;101552.97;5046191;28;20108;-79
2022/09/17 03:05:24;;;;;;;0.10;0.10;;;;;;;13.17;65.92;101557.53;5063816;28;20373;-80
2022/09/17 03:07:50;;;;;;;0.10;0.10;;;;;;;13.26;66.25;101552.00;5055601;28;20033;-80
2022/09/17 03:10:17;;;;;;;1.15;0.90;;;;;;;13.26;65.78;101557.31;5059427;28;20037;-80
2022/09/17 03:12:43;;;;;;;0.10;0.10;;;;;;;13.29;65.53;101552.84;5046608;28;20308;-80
2022/09/17 03:15:09;;;;;;;0.57;0.57;;;;;;;13.31;65.25;101546.59;5048324;28;20660;-79
2022/09/17 03:17:36;;;;;;;0.10;0.10;;;;;;;13.33;64.76;101546.56;5045077;28;20523;-80
2022/09/17 03:20:02;;;;;;;0.10;0.10;;;;;;;13.28;64.40;101546.66;5047227;28;20033;-80
2022/09/17 03:22:28;;;;;;;0.00;0.00;;;;;;;13.31;64.14;101538.63;5048800;28;20032;-80
2022/09/17 03:24:55;;;;;;;21.02;2.60;;;;;;;13.35;64.21;101544.75;5047974;28;20021;-80
2022/09/17 03:27:21;;;;;;;0.10;0.10;;;;;;;13.32;64.25;101543.03;5047415;28;20087;-80
2022/09/17 03:29:47;;;;;;;0.20;0.20;;;;;;;13.27;62.82;101545.78;5046425;28;20033;-79
2022/09/17 03:32:13;;;;;;;0.10;0.10;;;;;;;13.34;64.03;101537.66;5044420;28;20040;-79
2022/09/17 03:34:39;;;;;;;0.10;0.10;;;;;;;13.35;63.90;101526.97;5044325;28;20021;-79
2022/09/17 03:37:05;;;;;;;0.10;0.10;;;;;;;13.46;64.18;101533.91;5047312;28;20108;-79
2022/09/17 03:39:31;;;;;;;0.10;0.10;;;;;;;13.48;63.79;101543.59;5046952;28;20040;-79
2022/09/17 03:41:57;;;;;;;0.00;0.00;;;;;;;13.52;63.96;101547.97;5046579;28;20029;-79
2022/09/17 03:44:23;;;;;;;0.10;0.10;;;;;;;13.57;64.51;101543.44;5047953;28;20171;-78
2022/09/17 03:46:50;;;;;;;0.20;0.20;;;;;;;13.61;63.88;101549.56;5045681;28;20072;-78
2022/09/17 03:49:16;;;;;;;0.10;0.10;;;;;;;13.64;64.22;101545.97;5047063;28;20501;-78
2022/09/17 03:51:42;;;;;;;0.10;0.10;;;;;;;13.65;64.00;101540.59;5047303;28;20044;-78
2022/09/17 03:54:08;;;;;;;0.08;0.08;;;;;;;13.63;64.18;101542.41;5048128;28;20068;-78
2022/09/17 03:56:34;;;;;;;0.10;0.10;;;;;;;13.59;63.95;101536.28;5048801;28;20044;-79
2022/09/17 03:59:01;;;;;;;0.00;0.00;;;;;;;13.56;64.06;101547.00;5043312;28;20029;-78
2022/09/17 04:01:28;;;;;;;0.10;0.10;;;;;;;13.62;64.32;101546.00;5050205;28;20037;-79
2022/09/17 04:03:54;;;;;;;0.10;0.10;;;;;;;13.66;64.10;101552.13;5048842;28;20044;-78
2022/09/17 04:06:21;;;;;;;0.35;0.35;;;;;;;13.69;64.07;101554.72;5048429;28;20052;-79
2022/09/17 04:08:47;;;;;;;0.10;0.10;;;;;;;13.70;64.19;101553.81;5047398;28;20037;-79
2022/09/17 04:11:13;;;;;;;0.88;0.63;;;;;;;13.73;64.23;101559.06;5047504;28;20044;-79
2022/09/17 04:13:39;;;;;;;0.10;0.10;;;;;;;13.70;64.66;101575.97;5042683;28;20029;-78
2022/09/17 04:16:05;;;;;;;0.10;0.10;;;;;;;13.69;64.67;101570.69;5035260;28;20072;-79
2022/09/17 04:18:32;;;;;;;0.10;0.10;;;;;;;13.68;64.54;101571.59;5034998;28;20021;-79
2022/09/17 04:20:59;;;;;;;0.10;0.10;;;;;;;13.61;64.13;101569.97;5034746;28;20400;-79
2022/09/17 04:23:25;;;;;;;0.10;0.10;;;;;;;13.66;64.67;101568.13;5034043;28;20028;-79
2022/09/17 04:25:51;;;;;;;0.10;0.10;;;;;;;13.68;64.45;101566.28;5034965;28;20025;-79
2022/09/17 04:28:17;;;;;;;0.00;0.00;;;;;;;13.68;64.38;101571.59;5029814;28;20033;-79
2022/09/17 04:30:43;;;;;;;0.00;0.00;;;;;;;13.68;64.75;101568.94;5030116;28;20057;-79
2022/09/17 04:33:10;;;;;;;0.10;0.10;;;;;;;13.71;64.63;101563.56;5032866;28;20104;-78
2022/09/17 04:35:36;;;;;;;0.10;0.10;;;;;;;13.66;64.70;101562.78;5034484;28;20116;-79
2022/09/17 04:38:03;;;;;;;0.10;0.10;;;;;;;13.70;64.27;101564.47;5033513;28;20519;-78
2022/09/17 04:40:29;;;;;;;0.10;0.10;;;;;;;13.73;64.20;101569.72;5032677;28;20056;-79
2022/09/17 04:42:58;;;;;;;0.10;0.10;;;;;;;13.72;63.54;101578.59;5031384;28;20041;-79
2022/09/17 04:45:25;;;;;;;0.10;0.10;;;;;;;13.82;63.92;101573.97;5031622;28;20111;-78
2022/09/17 04:47:51;;;;;;;0.10;0.10;;;;;;;13.81;63.96;101578.41;5033236;28;20107;-79
2022/09/17 04:50:18;;;;;;;0.10;0.10;;;;;;;13.82;64.47;101624.56;5032118;28;20037;-78
2022/09/17 04:52:45;;;;;;;0.00;0.00;;;;;;;13.64;65.38;101633.81;5032144;28;20025;-78
2022/09/17 04:55:13;;;;;;;0.10;0.10;;;;;;;13.40;65.95;101620.09;5033274;28;20112;-79
2022/09/17 04:57:44;;;;;;;0.10;0.10;;;;;;;13.29;66.20;101616.72;5030069;28;20030;-78
2022/09/17 05:00:11;;;;;;;0.10;0.10;;;;;;;13.16;66.18;101627.59;5031638;28;20041;-79
2022/09/17 05:02:37;;;;;;;0.10;0.10;;;;;;;13.08;66.70;101610.88;5032074;28;20080;-79
2022/09/17 05:05:03;;;;;;;0.10;0.10;;;;;;;13.08;66.56;101609.13;5033978;28;20057;-78
2022/09/17 05:07:29;;;;;;;0.10;0.10;;;;;;;12.98;67.61;101606.66;5032997;28;20041;-79
2022/09/17 05:09:55;;;;;;;0.20;0.20;;;;;;;12.97;67.94;101596.91;5032465;28;20501;-79
2022/09/17 05:12:21;;;;;;;0.10;0.10;;;;;;;12.99;67.25;101603.09;5033565;28;20408;-78
2022/09/17 05:14:47;;;;;;;0.10;0.10;;;;;;;12.91;67.91;101596.13;5034380;28;20424;-78
2022/09/17 05:17:13;;;;;;;0.10;0.10;;;;;;;12.93;67.49;101593.41;5037075;28;20025;-79
2022/09/17 05:19:39;;;;;;;0.10;0.10;;;;;;;12.89;67.15;101592.59;5034613;28;20029;-79
2022/09/17 05:22:05;;;;;;;0.10;0.10;;;;;;;12.91;67.26;101589.91;5034772;28;20113;-79
2022/09/17 05:24:32;;;;;;;0.10;0.10;;;;;;;12.92;67.42;101592.56;5033927;28;20029;-79
2022/09/17 05:26:58;;;;;;;0.10;0.10;;;;;;;12.89;67.23;101592.59;5031535;28;20389;-79
2022/09/17 05:29:24;;;;;;;0.10;0.10;;;;;;;12.90;66.93;101604.13;5032788;28;20501;-78
2022/09/17 05:31:53;;;;;;;0.10;0.10;;;;;;;12.89;67.00;101628.97;5033136;28;20044;-79
2022/09/17 05:34:19;;;;;;;0.10;0.10;;;;;;;12.90;66.75;101620.09;5031013;28;20049;-79
2022/09/17 05:36:45;;;;;;;0.10;0.10;;;;;;;12.87;67.28;101615.69;5032508;28;20084;-78
2022/09/17 05:39:11;;;;;;;0.10;0.10;;;;;;;12.85;66.85;101614.84;5032208;28;20033;-78
2022/09/17 05:41:37;;;;;;;0.05;0.05;;;;;;;12.87;66.95;101615.69;5031412;28;20677;-79
2022/09/17 05:44:03;;;;;;;0.17;0.17;;;;;;;12.87;67.28;101610.38;5032495;28;20029;-79
2022/09/17 05:46:29;;;;;;;0.10;0.10;;;;;;;12.85;67.36;101606.00;5035335;28;20030;-79
2022/09/17 05:48:56;;;;;;;0.10;0.10;;;;;;;12.90;66.91;101607.66;5047825;28;20025;-78
2022/09/17 05:51:22;;;;;;;0.10;0.10;;;;;;;12.98;66.74;101604.00;5036254;28;20036;-78
2022/09/17 05:53:49;;;;;;;0.10;0.10;;;;;;;13.05;66.93;101605.63;5037385;28;20036;-79
2022/09/17 05:56:15;;;;;;;0.68;0.68;;;;;;;13.12;66.99;101601.94;5032987;28;20037;-79
2022/09/17 05:58:41;;;;;;;0.10;0.10;;;;;;;13.19;66.83;101600.06;5034834;28;20032;-79
2022/09/17 06:01:07;;;;;;;0.10;0.10;;;;;;;13.24;66.77;101591.06;5034135;28;20033;-78
2022/09/17 06:03:33;;;;;;;0.10;0.10;;;;;;;13.29;67.20;101592.78;5032126;28;20627;-78
2022/09/17 06:06:00;;;;;;;0.10;0.10;;;;;;;13.32;67.08;101606.00;5034435;28;20300;-79
2022/09/17 06:08:27;;;;;;;0.05;0.05;;;;;;;13.37;67.34;101606.78;5031669;28;20033;-79
2022/09/17 06:10:54;;;;;;;0.10;0.10;;;;;;;13.46;66.87;101605.78;5030027;28;20382;-78
2022/09/17 06:13:20;;;;;;;0.10;0.10;;;;;;;13.58;66.80;101619.75;5027966;28;20113;-78
2022/09/17 06:15:53;;;;;;;0.10;0.10;;;;;;;13.71;66.66;101646.13;5031108;28;20044;-79
2022/09/17 06:18:20;;;;;;;0.10;0.10;;;;;;;13.61;66.33;101640.09;5028498;28;20083;-78
2022/09/17 06:20:54;;;;;;;0.57;0.57;;;;;;;13.59;66.09;101624.16;5028115;28;20511;-78
2022/09/17 06:23:21;;;;;;;0.30;0.30;;;;;;;13.49;65.99;101629.69;5028231;28;20029;-78
2022/09/17 06:25:57;;;;;;;0.10;0.10;;;;;;;13.56;65.64;101626.88;5032565;28;20492;-78
2022/09/17 06:28:24;;;;;;;0.10;0.10;;;;;;;13.55;65.83;101621.59;5029372;28;20033;-78
2022/09/17 06:30:53;;;;;;;0.10;0.10;;;;;;;13.53;65.62;101626.94;5032408;28;20044;-78
2022/09/17 06:33:19;;;;;;;0.10;0.10;;;;;;;13.53;65.48;101618.97;5036056;28;20155;-78
2022/09/17 06:35:46;;;;;;;0.10;0.10;;;;;;;13.48;65.21;101633.25;5030383;28;20038;-78
2022/09/17 06:38:12;;;;;;;0.10;0.10;;;;;;;13.55;65.48;101635.75;5033077;28;20025;-78
2022/09/17 06:40:38;;;;;;;0.10;0.10;;;;;;;13.59;65.57;101623.25;5027377;28;20021;-78
2022/09/17 06:43:04;;;;;;;0.20;0.20;;;;;;;13.63;65.02;101642.72;5030984;28;20041;-79
2022/09/17 06:45:31;;;;;;;0.10;0.10;;;;;;;13.58;65.01;101634.81;5031323;28;20040;-78
2022/09/17 06:47:57;;;;;;;0.10;0.10;;;;;;;13.57;64.99;101639.28;5031667;28;20050;-78
2022/09/17 06:50:24;;;;;;;0.05;0.05;;;;;;;13.55;65.03;101641.09;5030178;28;20076;-79
2022/09/17 06:52:54;;;;;;;0.10;0.10;;;;;;;13.47;65.59;101643.03;5034216;28;20053;-79
2022/09/17 06:55:20;;;;;;;0.20;0.20;;;;;;;13.41;65.21;101643.16;5029688;28;20033;-79
2022/09/17 06:57:46;;;;;;;0.08;0.08;;;;;;;13.45;65.58;101644.84;5030896;28;20067;-79
2022/09/17 07:00:13;;;;;;;1.45;1.35;;;;;;;13.41;66.17;101637.81;5022860;28;20041;-78
2022/09/17 07:02:40;;;;;;;38.55;2.08;;;;;;;13.44;66.30;101632.44;5023730;28;20035;-81
2022/09/17 07:05:06;;;;;;;0.50;0.50;;;;;;;13.41;66.16;101630.72;5029460;28;20079;-78
2022/09/17 07:07:34;;;;;;;0.10;0.10;;;;;;;13.42;66.26;101639.56;5029192;28;20042;-79
2022/09/17 07:10:01;;;;;;;0.00;0.00;;;;;;;13.48;66.20;101634.13;5030426;28;20025;-79
2022/09/17 07:12:27;;;;;;;0.10;0.10;;;;;;;13.55;65.83;101632.22;5030693;28;20500;-79
2022/09/17 07:14:53;;;;;;;0.10;0.10;;;;;;;13.66;65.98;101632.03;5031075;28;20076;-79
2022/09/17 07:17:19;;;;;;;0.63;0.63;;;;;;;13.68;65.64;101625.75;5030321;28;20030;-79
2022/09/17 07:19:45;;;;;;;0.10;0.10;;;;;;;13.79;65.98;101625.50;5030526;28;20033;-79
2022/09/17 07:22:12;;;;;;;0.10;0.10;;;;;;;13.94;66.05;101634.09;5030995;28;20029;-79
2022/09/17 07:24:38;;;;;;;0.03;0.03;;;;;;;14.01;64.93;101627.75;5032761;28;20028;-79
2022/09/17 07:27:04;;;;;;;0.10;0.10;;;;;;;14.11;64.90;101629.28;5030287;28;20060;-79
2022/09/17 07:29:31;;;;;;;0.10;0.10;;;;;;;14.18;63.92;101630.00;5030245;28;20033;-79
2022/09/17 07:31:58;;;;;;;0.10;0.10;;;;;;;14.26;63.87;101632.53;5030431;28;20052;-79
2022/09/17 07:34:26;;;;;;;0.35;0.32;;;;;;;14.27;62.79;101629.81;5037174;28;20022;-80
2022/09/17 07:36:56;;;;;;;0.10;0.10;;;;;;;14.34;62.66;101628.78;5030808;28;20056;-79
2022/09/17 07:39:22;;;;;;;0.10;0.10;;;;;;;14.36;63.04;101636.72;5030229;28;20041;-79
2022/09/17 07:41:48;;;;;;;0.10;0.10;;;;;;;14.38;62.87;101632.22;5030691;28;20084;-79
2022/09/17 07:44:14;;;;;;;0.10;0.10;;;;;;;14.47;63.10;101637.34;5032352;28;20117;-79
2022/09/17 07:46:40;;;;;;;0.10;0.10;;;;;;;14.60;62.92;101629.06;5031793;28;20077;-79
2022/09/17 07:49:06;;;;;;;0.10;0.10;;;;;;;14.67;63.31;101633.38;5030044;28;20060;-79
2022/09/17 07:51:33;;;;;;;0.10;0.10;;;;;;;14.79;63.48;101633.06;5033381;28;20029;-79
2022/09/17 07:54:01;;;;;;;0.10;0.10;;;;;;;14.88;62.97;101643.50;5035084;28;20033;-79
2022/09/17 07:56:27;;;;;;;0.00;0.00;;;;;;;15.03;62.13;101652.03;5033004;28;20036;-79
2022/09/17 07:58:54;;;;;;;0.10;0.10;;;;;;;15.01;61.64;101648.50;5035443;28;20435;-81
2022/09/17 08:01:21;;;;;;;0.10;0.10;;;;;;;14.98;60.82;101664.63;5036934;28;20053;-79
2022/09/17 08:03:50;;;;;;;0.10;0.10;;;;;;;15.02;61.43;101656.47;5032973;28;20489;-80
2022/09/17 08:06:20;;;;;;;0.10;0.10;;;;;;;15.01;61.54;101645.84;5035082;28;20086;-79
2022/09/17 08:08:46;;;;;;;0.10;0.10;;;;;;;14.88;61.96;101643.50;5037203;28;20130;-80
2022/09/17 08:11:16;;;;;;;0.10;0.10;;;;;;;14.77;62.59;101640.22;5036971;28;20037;-80
2022/09/17 08:13:46;;;;;;;0.10;0.10;;;;;;;14.69;62.97;101650.19;5035550;28;20037;-81
2022/09/17 08:16:12;;;;;;;0.10;0.10;;;;;;;14.61;63.51;101654.81;5038407;28;20662;-81
2022/09/17 08:18:39;;;;;;;0.10;0.10;;;;;;;14.59;63.54;101649.50;5037138;28;20062;-79
2022/09/17 08:21:08;;;;;;;0.10;0.10;;;;;;;14.67;64.19;101642.22;5036623;28;20021;-80
2022/09/17 08:23:35;;;;;;;0.10;0.10;;;;;;;14.80;64.39;101645.47;5036830;28;20021;-80
2022/09/17 08:26:02;;;;;;;0.10;0.10;;;;;;;14.99;64.12;101640.56;5033236;28;20037;-80
2022/09/17 08:28:30;;;;;;;0.10;0.10;;;;;;;15.18;64.35;101648.94;5033433;28;20033;-80
2022/09/17 08:31:02;;;;;;;0.47;0.40;;;;;;;15.27;63.15;101654.97;5032182;28;20109;-79
2022/09/17 08:33:38;;;;;;;0.10;0.10;;;;;;;15.32;62.98;101661.06;5033059;28;20030;-79
2022/09/17 08:36:06;;;;;;;0.00;0.00;;;;;;;15.24;63.60;101663.03;5033273;28;20025;-79
2022/09/17 08:38:36;;;;;;;0.10;0.10;;;;;;;15.20;63.71;101665.81;5032941;28;20034;-79
2022/09/17 08:46:27;;;;;;;0.10;0.10;;;;;;;15.26;64.19;101675.44;5052037;28;20378;-81
2022/09/17 08:49:10;;;;;;;0.10;0.10;;;;;;;15.49;64.50;101672.16;5041007;28;20059;-80
2022/09/17 08:58:26;;;;;;;0.10;0.10;;;;;;;15.37;63.52;101652.00;5057569;28;20416;-79
2022/09/17 09:01:04;;;;;;;0.10;0.10;;;;;;;15.21;63.26;101656.00;5059879;28;20526;-83
2022/09/17 09:06:43;;;;;;;0.20;0.20;;;;;;;14.99;64.19;101661.00;5066300;28;20391;-79
2022/09/17 09:09:15;;;;;;;0.10;0.10;;;;;;;15.09;63.36;101661.66;5064229;28;20029;-79
2022/09/17 09:11:43;;;;;;;0.10;0.10;;;;;;;15.15;62.43;101662.41;5046988;28;20025;-80
2022/09/17 09:14:31;;;;;;;0.10;0.10;;;;;;;15.37;62.15;101667.16;5047722;28;20075;-79
2022/09/17 09:16:59;;;;;;;0.10;0.10;;;;;;;15.38;61.07;101676.91;5049600;28;20068;-80
2022/09/17 09:19:30;;;;;;;0.10;0.10;;;;;;;15.28;62.41;101726.16;5049973;28;20048;-79
2022/09/17 09:22:24;;;;;;;0.10;0.10;;;;;;;14.87;60.90;101695.09;5050615;28;20036;-80
2022/09/17 09:25:22;;;;;;;0.10;0.10;;;;;;;14.49;62.52;101709.28;5052974;28;20091;-78
2022/09/17 09:28:17;;;;;;;0.15;0.15;;;;;;;14.28;64.13;101698.22;5049013;28;20075;-79
2022/09/17 09:33:29;;;;;;;0.05;0.05;;;;;;;14.19;66.42;101691.28;5094771;27;20348;-76
2022/09/17 09:35:55;;;;;;;0.10;0.10;;;;;;;14.27;66.14;101688.47;5092429;28;20020;-79
2022/09/17 09:44:04;;;;;;;0.10;0.10;;;;;;;14.97;65.85;101685.06;5106712;27;20849;-78
2022/09/17 09:46:42;;;;;;;0.10;0.10;;;;;;;15.09;65.46;101686.56;5105865;28;20047;-78
2022/09/17 09:49:33;;;;;;;0.00;0.00;;;;;;;15.28;65.07;101689.63;5106079;28;20555;-80
2022/09/17 09:52:32;;;;;;;0.10;0.10;;;;;;;15.56;65.16;101682.69;5084647;28;20062;-80
2022/09/17 09:55:16;;;;;;;0.10;0.10;;;;;;;15.55;64.53;101681.78;5079882;28;20035;-80
2022/09/17 09:57:49;;;;;;;0.08;0.08;;;;;;;15.55;64.85;101671.09;5084907;28;20399;-80
2022/09/17 10:03:09;;;;;;;0.10;0.10;;;;;;;15.61;64.96;101675.41;5067979;28;20368;-80
2022/09/17 10:05:36;;;;;;;0.25;0.25;;;;;;;15.64;64.75;101672.66;5062671;28;20036;-80
2022/09/17 10:08:12;;;;;;;1.50;1.40;;;;;;;15.91;65.14;101672.81;5069507;28;20042;-80
2022/09/17 10:11:13;;;;;;;0.20;0.20;;;;;;;16.20;65.64;101682.66;5060105;28;20033;-80
2022/09/17 10:13:40;;;;;;;0.10;0.10;;;;;;;16.34;64.74;101676.88;5043625;28;20087;-80
2022/09/17 10:16:24;;;;;;;0.40;0.40;;;;;;;16.39;64.08;101684.78;5043724;28;20045;-79
2022/09/17 10:19:13;;;;;;;0.10;0.10;;;;;;;16.37;63.66;101681.25;5047818;28;20072;-80
2022/09/17 10:21:41;;;;;;;0.10;0.10;;;;;;;16.10;63.68;101675.81;5048575;28;20033;-80
2022/09/17 10:24:26;;;;;;;0.10;0.10;;;;;;;16.06;64.04;101677.69;5049642;28;20053;-80
2022/09/17 10:27:04;;;;;;;0.15;0.15;;;;;;;16.07;64.80;101676.78;5047225;28;20498;-80
2022/09/17 10:29:32;;;;;;;0.10;0.10;;;;;;;16.07;65.03;101668.75;5047620;28;20038;-80
2022/09/17 10:31:59;;;;;;;0.10;0.10;;;;;;;16.20;64.56;101666.63;5046244;28;20527;-80
2022/09/17 10:34:27;;;;;;;0.10;0.10;;;;;;;16.35;64.82;101651.91;5047435;28;20108;-80
2022/09/17 10:36:55;;;;;;;0.10;0.10;;;;;;;16.51;64.84;101660.31;5050910;28;20475;-80
2022/09/17 10:39:43;;;;;;;0.10;0.10;;;;;;;16.76;62.36;101656.81;5045301;28;20346;-80
2022/09/17 10:44:56;;;;;;;0.10;0.10;;;;;;;16.84;59.94;101633.38;5100572;27;20537;-79
2022/09/17 10:47:28;;;;;;;0.10;0.10;;;;;;;16.66;59.06;101641.09;5096749;28;20032;-79
2022/09/17 10:52:36;;;;;;;0.10;0.10;;;;;;;16.84;60.05;101653.91;5119444;27;20944;-79
2022/09/17 11:00:19;;;;;;;0.10;0.10;;;;;;;16.11;59.30;101657.06;5092182;27;20405;-80
2022/09/17 11:03:17;;;;;;;0.75;0.75;;;;;;;15.88;59.03;101652.41;5090491;28;20044;-80
2022/09/17 11:06:17;;;;;;;0.10;0.10;;;;;;;15.93;61.06;101655.81;5087969;28;20129;-80
2022/09/17 11:11:54;;;;;;;0.30;0.30;;;;;;;16.24;60.84;101644.19;5065248;28;20052;-80
2022/09/17 11:14:48;;;;;;;0.10;0.10;;;;;;;16.45;61.29;101641.78;5036940;28;20029;-80
2022/09/17 11:17:54;;;;;;;0.10;0.10;;;;;;;16.76;61.73;101641.66;5037259;28;20464;-80
2022/09/17 11:20:42;;;;;;;1.88;1.75;;;;;;;16.88;59.05;101647.53;5040430;28;20048;-80
2022/09/17 11:25:57;;;;;;;0.10;0.10;;;;;;;17.16;53.88;101630.53;5103322;27;20418;-79
2022/09/17 11:28:59;;;;;;;0.10;0.10;;;;;;;17.33;50.72;101646.00;5105415;28;20031;-80
2022/09/17 11:31:53;;;;;;;0.17;0.17;;;;;;;17.40;50.11;101624.31;5100765;28;20056;-80
2022/09/17 11:34:29;;;;;;;0.10;0.10;;;;;;;17.58;50.02;101635.28;5104310;28;20051;-79
2022/09/17 11:39:57;;;;;;;0.10;0.10;;;;;;;17.99;50.59;101622.16;5123233;27;20397;-81
2022/09/17 11:42:26;;;;;;;;;;;;;;;18.17;49.29;101633.09;5090479;28;20028;-80
2022/09/17 11:45:01;;;;;;;0.10;0.10;;;;;;;18.17;49.53;101611.63;5089861;28;19916;-79
2022/09/17 11:47:33;;;;;;;0.10;0.10;;;;;;;18.16;46.60;101628.69;5090721;28;20052;-81
2022/09/17 11:50:13;;;;;;;0.10;0.10;;;;;;;18.05;43.80;101629.94;5088636;28;20482;-81
2022/09/17 11:52:45;;;;;;;0.10;0.10;;;;;;;18.04;44.39;101628.19;5090712;28;20037;-79
2022/09/17 11:55:36;;;;;;;0.10;0.10;;;;;;;18.15;44.92;101643.03;5089144;28;20036;-80
2022/09/17 11:58:29;;;;;;;0.20;0.20;;;;;;;18.09;42.40;101636.06;5088809;28;20040;-81
2022/09/17 12:01:08;;;;;;;0.45;0.45;;;;;;;18.08;42.22;101637.91;5088622;28;20066;-81
2022/09/17 12:03:41;;;;;;;0.10;0.10;;;;;;;18.09;43.43;101641.44;5077281;28;20067;-82
2022/09/17 12:06:22;;;;;;;0.20;0.20;;;;;;;18.10;42.66;101637.84;5076716;28;20028;-81
2022/09/17 12:11:44;;;;;;;0.10;0.10;;;;;;;18.18;43.69;101629.47;5095879;27;20399;-81
2022/09/17 12:14:34;;;;;;;0.32;0.32;;;;;;;18.35;43.97;101627.00;5102433;28;20066;-81
2022/09/17 12:17:02;;;;;;;0.38;0.38;;;;;;;18.35;43.06;101620.75;5082432;28;20035;-81
2022/09/17 12:22:14;;;;;;;0.10;0.10;;;;;;;18.60;43.77;101628.69;5073521;27;20391;-79
2022/09/17 12:24:41;;;;;;;0.05;0.05;;;;;;;18.65;44.31;101629.34;5023642;28;20076;-79
2022/09/17 12:35:51;;;;;;;0.10;0.10;;;;;;;18.73;41.15;101623.69;5138690;27;20116;-78
2022/09/17 12:41:46;;;;;;;0.55;0.55;;;;;;;18.76;40.48;101629.78;5108997;27;20391;-81
2022/09/17 12:47:38;;;;;;;0.10;0.10;;;;;;;19.02;40.25;101622.47;5110721;27;20387;-80
2022/09/17 12:53:07;;;;;;;0.30;0.30;;;;;;;18.91;39.36;101628.28;5091992;27;20387;-80
2022/09/17 12:55:53;;;;;;;0.10;0.10;;;;;;;18.90;39.68;101626.56;5091986;28;20085;-79
2022/09/17 12:58:49;;;;;;;0.68;0.68;;;;;;;19.04;40.97;101633.13;5095758;28;20091;-80
2022/09/17 13:01:24;;;;;;;0.20;0.20;;;;;;;18.99;39.75;101616.34;5083788;28;20040;-80
2022/09/17 13:04:00;;;;;;;0.15;0.15;;;;;;;19.19;41.62;101628.91;5085199;28;20025;-79
2022/09/17 13:12:24;;;;;;;0.15;0.15;;;;;;;19.55;39.81;101622.84;5110291;27;20363;-80
2022/09/17 13:15:16;;;;;;;0.10;0.10;;;;;;;19.46;40.82;101617.91;5089567;28;20059;-80
2022/09/17 13:23:30;;;;;;;0.10;0.10;;;;;;;19.78;41.02;101642.44;5073637;28;20399;-81
2022/09/17 13:25:59;;;;;;;0.20;0.20;;;;;;;19.86;41.15;101624.16;5057840;28;20038;-82
2022/09/17 13:28:36;;;;;;;0.10;0.10;;;;;;;19.63;47.42;101617.13;5050476;28;20108;-82
2022/09/17 13:31:04;;;;;;;0.10;0.10;;;;;;;19.02;49.03;101638.59;5039290;28;20060;-81
2022/09/17 13:33:54;;;;;;;0.08;0.08;;;;;;;18.30;50.32;101645.09;5034191;28;20037;-81
2022/09/17 13:37:00;;;;;;;0.10;0.10;;;;;;;17.91;51.07;101635.81;5040360;28;20055;-81
2022/09/17 13:42:41;;;;;;;0.45;0.45;;;;;;;17.86;52.91;101640.50;5112247;27;20403;-80
2022/09/17 13:45:10;;;;;;;0.10;0.10;;;;;;;17.94;51.19;101632.19;5095198;28;20056;-79
2022/09/17 13:47:49;;;;;;;0.15;0.15;;;;;;;18.09;50.48;101634.28;5096178;28;20035;-80
2022/09/17 13:50:33;;;;;;;0.10;0.10;;;;;;;18.24;46.15;101627.44;5092407;28;20081;-82